createdAt,value
2023-01-03T00:02:11.491Z,7.90
2023-01-03T00:04:43.357Z,7.60
2023-01-03T00:07:33.636Z,7.80
2023-01-03T00:10:10.659Z,7.10
2023-01-03T00:12:39.035Z,8.20
2023-01-03T00:15:08.077Z,7.50
2023-01-03T00:17:36.514Z,8.10
2023-01-03T00:20:05.989Z,8.20
2023-01-03T00:22:34.522Z,7.60
2023-01-03T00:25:03.645Z,8.60
2023-01-03T00:27:32.013Z,7.60
2023-01-03T00:30:00.847Z,8.10
2023-01-03T00:32:29.154Z,8.50
2023-01-03T00:35:01.564Z,7.20
2023-01-03T00:37:33.235Z,9.00
2023-01-03T00:40:02.177Z,8.30
2023-01-03T00:42:50.527Z,8.70
2023-01-03T00:45:20.049Z,10.10
2023-01-03T00:47:49.501Z,9.30
2023-01-03T00:50:17.792Z,9.60
2023-01-03T00:52:46.079Z,9.20
2023-01-03T00:55:14.504Z,9.20
2023-01-03T00:57:42.883Z,7.90
2023-01-03T01:00:12.042Z,9.40
2023-01-03T01:02:40.648Z,7.40
2023-01-03T01:05:09.297Z,8.10
2023-01-03T01:07:37.645Z,8.20
2023-01-03T01:10:06.449Z,7.50
2023-01-03T01:12:34.784Z,6.60
2023-01-03T01:15:03.465Z,6.00
2023-01-03T01:17:32.055Z,5.60
2023-01-03T01:20:00.397Z,5.90
2023-01-03T01:22:28.731Z,5.90
2023-01-03T01:24:57.082Z,6.40
2023-01-03T01:27:25.640Z,7.30
2023-01-03T01:29:54.310Z,7.00
2023-01-03T01:32:22.691Z,6.40
2023-01-03T01:34:50.980Z,6.80
2023-01-03T01:37:19.306Z,5.00
2023-01-03T01:39:47.635Z,6.60
2023-01-03T01:42:34.783Z,5.50
2023-01-03T01:45:14.011Z,5.60
2023-01-03T01:47:57.500Z,5.40
2023-01-03T01:50:49.791Z,6.20
2023-01-03T01:53:35.405Z,5.80
2023-01-03T01:56:17.784Z,6.50
2023-01-03T01:58:50.305Z,6.40
2023-01-03T02:01:22.360Z,6.50
2023-01-03T02:04:01.489Z,6.70
2023-01-03T02:06:32.876Z,7.10
2023-01-03T02:09:01.326Z,6.80
2023-01-03T02:11:51.385Z,6.60
2023-01-03T02:14:28.777Z,6.10
2023-01-03T02:17:32.517Z,5.80
2023-01-03T02:20:52.343Z,5.50
2023-01-03T02:23:54.277Z,6.20
2023-01-03T02:26:59.048Z,5.60
2023-01-03T02:30:28.158Z,5.80
2023-01-03T02:33:25.603Z,7.10
2023-01-03T02:36:06.549Z,5.80
2023-01-03T02:38:49.513Z,6.60
2023-01-03T02:41:40.587Z,5.60
2023-01-03T02:44:25.810Z,4.60
2023-01-03T02:47:03.309Z,4.90
2023-01-03T02:49:45.778Z,5.60
2023-01-03T02:52:21.678Z,6.00
2023-01-03T02:55:00.203Z,5.00
2023-01-03T02:57:39.594Z,5.70
2023-01-03T03:00:16.889Z,5.10
2023-01-03T03:02:56.717Z,4.90
2023-01-03T03:05:32.658Z,4.90
2023-01-03T03:08:01.272Z,4.40
2023-01-03T03:10:48.870Z,4.30
2023-01-03T03:13:34.572Z,4.50
2023-01-03T03:19:00.539Z,3.50
2023-01-03T03:21:53.609Z,3.30
2023-01-03T03:24:49.043Z,4.20
2023-01-03T03:27:40.163Z,4.00
2023-01-03T03:30:15.245Z,3.60
2023-01-03T03:32:45.488Z,3.40
2023-01-03T03:35:16.899Z,3.00
2023-01-03T03:37:48.268Z,3.80
2023-01-03T03:40:35.019Z,3.70
2023-01-03T03:43:47.392Z,3.20
2023-01-03T03:46:23.143Z,2.80
2023-01-03T03:49:24.750Z,2.10
2023-01-03T03:51:59.714Z,2.50
2023-01-03T03:54:31.713Z,2.30
2023-01-03T03:57:37.125Z,2.10
2023-01-03T04:00:21.534Z,1.80
2023-01-03T04:02:50.816Z,2.00
2023-01-03T04:05:23.504Z,2.00
2023-01-03T04:07:51.885Z,2.30
2023-01-03T04:10:23.474Z,2.10
2023-01-03T04:12:52.517Z,1.90
2023-01-03T04:15:20.932Z,1.70
2023-01-03T04:17:49.356Z,2.00
2023-01-03T04:20:19.164Z,2.00
2023-01-03T04:22:47.561Z,2.10
2023-01-03T04:25:15.982Z,1.90
2023-01-03T04:27:44.346Z,1.50
2023-01-03T04:30:13.391Z,1.70
2023-01-03T04:32:41.802Z,2.20
2023-01-03T04:35:10.152Z,2.40
2023-01-03T04:37:38.476Z,1.90
2023-01-03T04:40:07.498Z,1.80
2023-01-03T04:42:54.441Z,2.20
2023-01-03T04:45:22.777Z,1.80
2023-01-03T04:47:54.182Z,1.80
2023-01-03T04:50:22.507Z,1.70
2023-01-03T04:52:50.829Z,1.80
2023-01-03T04:55:19.378Z,1.50
2023-01-03T04:57:47.684Z,1.50
2023-01-03T05:00:16.790Z,1.90
2023-01-03T05:02:45.097Z,2.00
2023-01-03T05:05:13.547Z,2.00
2023-01-03T05:07:42.695Z,1.80
2023-01-03T05:10:11.067Z,1.70
2023-01-03T05:12:39.382Z,2.20
2023-01-03T05:15:08.784Z,2.60
2023-01-03T05:17:37.084Z,1.80
2023-01-03T05:20:24.977Z,1.80
2023-01-03T05:23:11.816Z,1.70
2023-01-03T05:25:52.179Z,2.20
2023-01-03T05:28:23.651Z,1.80
2023-01-03T05:30:52.025Z,2.20
2023-01-03T05:33:20.323Z,1.90
2023-01-03T05:35:48.740Z,2.30
2023-01-03T05:38:17.249Z,2.20
2023-01-03T05:40:45.612Z,1.50
2023-01-03T05:43:13.949Z,1.80
2023-01-03T05:45:42.314Z,1.60
2023-01-03T05:48:10.707Z,2.20
2023-01-03T05:50:39.087Z,2.30
2023-01-03T05:53:07.397Z,2.20
2023-01-03T05:55:37.568Z,2.50
2023-01-03T05:58:07.332Z,2.30
2023-01-03T06:00:35.666Z,2.00
2023-01-03T06:03:04.186Z,2.40
2023-01-03T06:05:32.674Z,1.60
2023-01-03T06:08:02.666Z,2.10
2023-01-03T06:10:30.958Z,1.80
2023-01-03T06:12:59.689Z,1.90
2023-01-03T06:15:28.017Z,2.10
2023-01-03T06:17:58.858Z,2.00
2023-01-03T06:20:27.918Z,2.10
2023-01-03T06:22:56.985Z,2.40
2023-01-03T06:25:25.489Z,2.40
2023-01-03T06:31:12.884Z,2.30
2023-01-03T06:36:37.731Z,3.10
2023-01-03T06:39:11.516Z,2.50
2023-01-03T06:41:39.779Z,3.00
2023-01-03T06:44:11.179Z,2.60
2023-01-03T06:46:58.225Z,2.80
2023-01-03T06:49:45.291Z,2.70
2023-01-03T06:52:35.128Z,2.20
2023-01-03T06:55:05.063Z,2.50
2023-01-03T06:57:33.422Z,2.60
2023-01-03T07:00:02.057Z,2.40
2023-01-03T07:02:30.507Z,2.60
2023-01-03T07:04:59.014Z,2.70
2023-01-03T07:07:27.351Z,2.90
2023-01-03T07:09:55.679Z,2.60
2023-01-03T07:12:42.821Z,2.30
2023-01-03T07:15:11.575Z,2.70
2023-01-03T07:17:39.964Z,2.30
2023-01-03T07:20:08.845Z,2.30
2023-01-03T07:22:37.161Z,3.00
2023-01-03T07:25:06.358Z,3.30
2023-01-03T07:27:34.630Z,3.30
2023-01-03T07:30:03.113Z,3.50
2023-01-03T07:32:31.534Z,3.40
2023-01-03T07:34:59.802Z,3.60
2023-01-03T07:37:28.606Z,4.10
2023-01-03T07:39:56.949Z,3.80
2023-01-03T07:42:43.826Z,4.00
2023-01-03T07:45:12.094Z,3.40
2023-01-03T07:47:47.119Z,3.60
2023-01-03T07:50:15.475Z,3.70
2023-01-03T07:52:43.819Z,4.70
2023-01-03T07:55:12.485Z,4.10
2023-01-03T07:57:40.893Z,4.10
2023-01-03T08:00:10.219Z,3.70
2023-01-03T08:02:38.791Z,4.40
2023-01-03T08:05:07.887Z,3.30
2023-01-03T08:07:36.528Z,4.20
2023-01-03T08:10:23.725Z,3.80
2023-01-03T08:13:11.733Z,4.30
2023-01-03T08:15:40.140Z,4.10
2023-01-03T08:18:08.505Z,3.90
2023-01-03T08:20:36.809Z,4.70
2023-01-03T08:23:05.112Z,4.90
2023-01-03T08:25:33.484Z,4.10
2023-01-03T08:28:03.028Z,4.80
2023-01-03T08:30:31.745Z,4.70
2023-01-03T08:33:03.798Z,4.40
2023-01-03T08:35:36.111Z,5.10
2023-01-03T08:38:08.538Z,3.80
2023-01-03T08:40:42.373Z,4.20
2023-01-03T08:43:13.784Z,4.10
2023-01-03T08:45:42.349Z,5.00
2023-01-03T08:48:11.497Z,4.80
2023-01-03T08:50:41.427Z,4.40
2023-01-03T08:53:09.860Z,4.50
2023-01-03T08:55:38.293Z,4.60
2023-01-03T08:58:09.595Z,4.20
2023-01-03T09:00:37.939Z,4.00
2023-01-03T09:03:06.644Z,3.90
2023-01-03T09:05:35.276Z,4.30
2023-01-03T09:08:03.714Z,4.00
2023-01-03T09:10:32.419Z,4.70
2023-01-03T09:13:02.579Z,3.90
2023-01-03T09:15:31.059Z,4.30
2023-01-03T09:17:59.459Z,4.40
2023-01-03T09:20:27.816Z,4.30
2023-01-03T09:22:56.330Z,4.40
2023-01-03T09:25:24.640Z,3.70
2023-01-03T09:27:52.936Z,5.80
2023-01-03T09:30:21.247Z,3.90
2023-01-03T09:32:51.154Z,4.50
2023-01-03T09:35:19.456Z,5.10
2023-01-03T09:37:49.115Z,3.80
2023-01-03T09:40:17.820Z,4.60
2023-01-03T09:43:04.895Z,5.20
2023-01-03T09:45:35.123Z,4.50
2023-01-03T09:48:05.082Z,4.70
2023-01-03T09:51:14.252Z,4.50
2023-01-03T09:54:00.199Z,5.00
2023-01-03T09:56:47.062Z,4.30
2023-01-03T09:59:37.028Z,3.80
2023-01-03T10:02:54.877Z,5.10
2023-01-03T10:05:52.490Z,3.90
2023-01-03T10:08:45.711Z,4.70
2023-01-03T10:12:09.616Z,4.70
2023-01-03T10:15:00.588Z,4.30
2023-01-03T10:18:07.074Z,4.30
2023-01-03T10:21:03.028Z,4.20
2023-01-03T10:23:31.998Z,4.00
2023-01-03T10:26:01.001Z,4.80
2023-01-03T10:28:38.534Z,4.60
2023-01-03T10:31:40.285Z,4.30
2023-01-03T10:34:10.794Z,4.20
2023-01-03T10:36:39.153Z,4.00
2023-01-03T10:39:10.858Z,4.40
2023-01-03T10:41:47.326Z,4.10
2023-01-03T10:44:25.642Z,4.70
2023-01-03T10:46:57.532Z,4.00
2023-01-03T10:49:31.462Z,5.30
2023-01-03T10:52:14.297Z,4.30
2023-01-03T10:54:54.885Z,5.50
2023-01-03T10:57:44.245Z,4.60
2023-01-03T11:00:38.147Z,5.10
2023-01-03T11:03:12.509Z,4.70
2023-01-03T11:05:43.995Z,5.30
2023-01-03T11:08:35.080Z,5.50
2023-01-03T11:11:03.728Z,5.60
2023-01-03T11:13:40.644Z,5.60
2023-01-03T11:16:19.796Z,5.10
2023-01-03T11:19:04.377Z,4.90
2023-01-03T11:22:04.763Z,4.90
2023-01-03T11:24:51.487Z,3.80
2023-01-03T11:27:40.612Z,4.30
2023-01-03T11:30:35.000Z,4.00
2023-01-03T11:33:36.773Z,3.10
2023-01-03T11:36:42.281Z,3.10
2023-01-03T11:39:47.849Z,3.20
2023-01-03T11:42:40.480Z,3.40
2023-01-03T11:45:53.352Z,3.40
2023-01-03T11:48:30.861Z,3.30
2023-01-03T11:51:08.281Z,3.00
2023-01-03T11:54:03.046Z,3.10
2023-01-03T11:56:36.633Z,2.50
2023-01-03T11:59:42.431Z,2.90
2023-01-03T12:02:47.828Z,3.20
2023-01-03T12:05:37.213Z,4.70
2023-01-03T12:08:11.654Z,4.10
2023-01-03T12:10:54.427Z,4.70
2023-01-03T12:13:44.841Z,4.50
2023-01-03T12:16:36.839Z,4.40
2023-01-03T12:19:41.889Z,4.70
2023-01-03T12:22:35.884Z,3.50
2023-01-03T12:25:30.746Z,3.20
2023-01-03T12:28:11.824Z,2.40
2023-01-03T12:31:05.353Z,3.40
2023-01-03T12:34:27.762Z,3.60
2023-01-03T12:37:23.314Z,2.60
2023-01-03T12:40:01.148Z,3.10
2023-01-03T12:42:29.432Z,3.50
2023-01-03T12:45:34.033Z,3.60
2023-01-03T12:48:11.672Z,2.80
2023-01-03T12:50:49.478Z,3.50
2023-01-03T12:54:11.328Z,3.50
2023-01-03T12:56:53.686Z,2.90
2023-01-03T12:59:39.610Z,2.70
2023-01-03T13:02:38.047Z,2.70
2023-01-03T13:05:34.655Z,2.30
2023-01-03T13:08:38.823Z,2.90
2023-01-03T13:11:19.713Z,2.30
2023-01-03T13:14:19.675Z,2.10
2023-01-03T13:17:14.699Z,2.90
2023-01-03T13:20:32.230Z,2.40
2023-01-03T13:23:21.158Z,2.80
2023-01-03T13:26:10.200Z,2.40
2023-01-03T13:28:40.248Z,3.10
2023-01-03T13:31:14.692Z,2.80
2023-01-03T13:33:52.239Z,3.40
2023-01-03T13:36:21.673Z,3.30
2023-01-03T13:38:51.119Z,3.20
2023-01-03T13:41:42.728Z,3.80
2023-01-03T13:44:21.801Z,3.90
2023-01-03T13:46:51.787Z,3.90
2023-01-03T13:49:26.838Z,3.40
2023-01-03T13:51:58.138Z,3.70
2023-01-03T13:54:58.202Z,3.40
2023-01-03T13:57:51.191Z,3.60
2023-01-03T14:00:22.941Z,4.00
2023-01-03T14:03:43.989Z,3.50
2023-01-03T14:06:37.300Z,3.90
2023-01-03T14:09:40.043Z,3.20
2023-01-03T14:12:17.166Z,3.40
2023-01-03T14:14:52.733Z,4.30
2023-01-03T14:17:29.485Z,4.00
2023-01-03T14:20:06.045Z,4.80
2023-01-03T14:22:39.706Z,6.10
2023-01-03T14:25:39.074Z,6.50
2023-01-03T14:28:18.458Z,7.30
2023-01-03T14:31:06.445Z,5.20
2023-01-03T14:33:41.499Z,4.90
2023-01-03T14:36:16.367Z,5.40
2023-01-03T14:38:53.628Z,6.50
2023-01-03T14:41:38.903Z,5.60
2023-01-03T14:44:16.441Z,6.20
2023-01-03T14:46:55.058Z,6.70
2023-01-03T14:49:45.678Z,9.70
2023-01-03T14:52:17.431Z,17.20
2023-01-03T14:54:50.788Z,19.10
2023-01-03T14:57:29.274Z,22.50
2023-01-03T15:00:00.759Z,10.20
2023-01-03T15:02:35.892Z,6.10
2023-01-03T15:05:31.180Z,7.20
2023-01-03T15:08:24.815Z,13.60
2023-01-03T15:10:59.797Z,13.50
2023-01-03T15:13:49.407Z,14.80
2023-01-03T15:16:27.014Z,51.40
2023-01-03T15:19:20.366Z,43.50
2023-01-03T15:21:49.280Z,31.70
2023-01-03T15:24:21.050Z,19.90
2023-01-03T15:26:52.477Z,15.90
2023-01-03T15:29:24.417Z,16.30
2023-01-03T15:31:59.114Z,17.50
2023-01-03T15:34:30.712Z,14.60
2023-01-03T15:37:14.792Z,15.30
2023-01-03T15:39:45.596Z,24.90
2023-01-03T15:42:45.168Z,24.20
2023-01-03T15:45:22.789Z,20.00
2023-01-03T15:47:55.668Z,20.60
2023-01-03T15:50:27.250Z,35.80
2023-01-03T15:52:55.572Z,89.00
2023-01-03T15:55:23.971Z,95.30
2023-01-03T15:57:53.876Z,82.40
2023-01-03T16:00:24.404Z,54.10
2023-01-03T16:02:53.041Z,65.70
2023-01-03T16:05:22.972Z,53.90
2023-01-03T16:07:53.303Z,35.50
2023-01-03T16:10:21.998Z,45.40
2023-01-03T16:12:50.457Z,39.20
2023-01-03T16:15:22.251Z,30.10
2023-01-03T16:17:51.839Z,32.50
2023-01-03T16:20:20.283Z,74.70
2023-01-03T16:23:01.769Z,51.30
2023-01-03T16:25:30.493Z,44.90
2023-01-03T16:27:58.821Z,71.50
2023-01-03T16:30:27.177Z,64.90
2023-01-03T16:32:55.573Z,92.80
2023-01-03T16:35:23.909Z,45.00
2023-01-03T16:37:52.187Z,41.60
2023-01-03T16:40:21.651Z,42.50
2023-01-03T16:42:49.970Z,36.00
2023-01-03T16:45:19.532Z,39.50
2023-01-03T16:47:48.654Z,42.70
2023-01-03T16:50:20.946Z,43.60
2023-01-03T16:52:54.556Z,38.30
2023-01-03T16:55:38.636Z,38.10
2023-01-03T16:58:07.149Z,34.30
2023-01-03T17:00:36.913Z,39.20
2023-01-03T17:03:05.312Z,36.20
2023-01-03T17:05:37.757Z,33.30
2023-01-03T17:08:16.183Z,34.00
2023-01-03T17:10:47.326Z,31.80
2023-01-03T17:13:22.648Z,34.50
2023-01-03T17:18:23.373Z,37.30
2023-01-03T17:20:56.732Z,46.60
2023-01-03T17:23:25.915Z,47.10
2023-01-03T17:25:55.606Z,52.60
2023-01-03T17:28:24.104Z,51.70
2023-01-03T17:30:56.588Z,48.20
2023-01-03T17:33:31.890Z,49.30
2023-01-03T17:36:02.112Z,36.40
2023-01-03T17:38:31.874Z,34.20
2023-01-03T17:41:00.226Z,30.50
2023-01-03T17:43:28.865Z,23.80
2023-01-03T17:46:23.105Z,22.30
2023-01-03T17:49:10.614Z,23.60
2023-01-03T17:51:39.021Z,20.80
2023-01-03T17:54:11.276Z,20.60
2023-01-03T17:56:40.694Z,22.70
2023-01-03T17:59:14.365Z,23.30
2023-01-03T18:01:42.878Z,22.00
2023-01-03T18:04:11.329Z,20.70
2023-01-03T18:06:39.998Z,16.60
2023-01-03T18:09:15.415Z,13.90
2023-01-03T18:14:15.819Z,11.20
2023-01-03T18:16:46.557Z,23.70
2023-01-03T18:19:18.410Z,20.10
2023-01-03T18:21:53.929Z,17.50
2023-01-03T18:24:28.939Z,17.40
2023-01-03T18:26:57.643Z,20.60
2023-01-03T18:29:25.956Z,17.00
2023-01-03T18:31:55.363Z,17.40
2023-01-03T18:34:23.840Z,17.30
2023-01-03T18:36:52.749Z,16.50
2023-01-03T18:39:29.508Z,11.60
2023-01-03T18:42:20.644Z,11.70
2023-01-03T18:44:49.170Z,14.60
2023-01-03T18:47:17.801Z,18.10
2023-01-03T18:49:46.163Z,20.20
2023-01-03T18:52:27.592Z,18.30
2023-01-03T18:54:55.990Z,19.20
2023-01-03T18:57:24.515Z,19.50
2023-01-03T18:59:52.927Z,19.80
2023-01-03T19:02:22.975Z,18.90
2023-01-03T19:04:52.123Z,19.50
2023-01-03T19:07:30.799Z,20.70
2023-01-03T19:10:00.398Z,22.20
2023-01-03T19:12:32.012Z,21.30
2023-01-03T19:15:00.389Z,21.30
2023-01-03T19:17:28.846Z,24.90
2023-01-03T19:19:57.224Z,25.20
2023-01-03T19:22:29.896Z,23.30
2023-01-03T19:25:02.714Z,21.10
2023-01-03T19:27:38.162Z,21.20
2023-01-03T19:32:52.568Z,28.00
2023-01-03T19:35:23.402Z,27.60
2023-01-03T19:37:52.356Z,24.20
2023-01-03T19:40:24.712Z,21.50
2023-01-03T19:42:58.632Z,19.90
2023-01-03T19:45:40.856Z,19.90
2023-01-03T19:48:24.565Z,16.30
2023-01-03T19:50:53.134Z,19.90
2023-01-03T19:53:21.662Z,19.80
2023-01-03T19:55:52.336Z,21.80
2023-01-03T19:58:31.300Z,23.10
2023-01-03T20:01:00.317Z,30.50
2023-01-03T20:03:32.901Z,31.20
2023-01-03T20:06:01.638Z,35.10
2023-01-03T20:08:30.388Z,48.10
2023-01-03T20:10:58.757Z,54.80
2023-01-03T20:13:27.613Z,29.50
2023-01-03T20:16:00.472Z,24.60
2023-01-03T20:18:36.265Z,24.10
2023-01-03T20:21:24.473Z,24.00
2023-01-03T20:23:56.224Z,25.70
2023-01-03T20:26:31.687Z,24.70
2023-01-03T20:31:28.900Z,19.50
2023-01-03T20:33:57.367Z,22.40
2023-01-03T20:36:36.015Z,22.50
2023-01-03T20:39:04.439Z,27.70
2023-01-03T20:41:38.664Z,26.60
2023-01-03T20:44:09.888Z,28.20
2023-01-03T20:46:39.499Z,28.00
2023-01-03T20:49:36.528Z,28.50
2023-01-03T20:52:05.292Z,28.80
2023-01-03T20:54:33.685Z,29.50
2023-01-03T20:57:02.064Z,32.20
2023-01-03T20:59:31.527Z,35.30
2023-01-03T21:02:00.020Z,36.10
2023-01-03T21:04:28.479Z,38.90
2023-01-03T21:06:58.067Z,38.50
2023-01-03T21:09:26.387Z,37.90
2023-01-03T21:11:54.728Z,38.60
2023-01-03T21:14:23.111Z,36.40
2023-01-03T21:16:51.540Z,39.30
2023-01-03T21:19:24.391Z,36.40
2023-01-03T21:21:55.427Z,36.90
2023-01-03T21:24:24.352Z,41.10
2023-01-03T21:26:52.726Z,37.30
2023-01-03T21:29:22.063Z,37.80
2023-01-03T21:43:26.092Z,37.30
2023-01-03T21:45:56.501Z,25.60
2023-01-03T21:48:25.522Z,32.30
2023-01-03T21:50:53.974Z,34.60
2023-01-03T21:53:23.418Z,34.10
2023-01-03T21:55:51.771Z,33.10
2023-01-03T21:58:21.142Z,34.50
2023-01-03T22:00:49.673Z,34.00
2023-01-03T22:03:36.957Z,35.50
2023-01-03T22:06:11.245Z,33.00
2023-01-03T22:08:40.911Z,35.00
2023-01-03T22:11:09.325Z,33.50
2023-01-03T22:13:37.626Z,31.40
2023-01-03T22:16:08.940Z,33.00
2023-01-03T22:18:37.622Z,31.60
2023-01-03T22:21:10.333Z,33.20
2023-01-03T22:23:40.290Z,30.50
2023-01-03T22:26:13.068Z,32.00
2023-01-03T22:28:44.791Z,31.90
2023-01-03T22:31:22.895Z,33.00
2023-01-03T22:33:51.722Z,32.70
2023-01-03T22:36:20.014Z,32.80
2023-01-03T22:38:48.401Z,32.10
2023-01-03T22:41:18.605Z,31.90
2023-01-03T22:43:46.980Z,33.50
2023-01-03T22:46:17.399Z,35.80
2023-01-03T22:48:45.835Z,32.80
2023-01-03T22:51:15.933Z,30.10
2023-01-03T22:53:49.014Z,28.50
2023-01-03T22:56:18.188Z,29.20
2023-01-03T22:58:46.712Z,29.10
2023-01-03T23:01:20.147Z,31.70
2023-01-03T23:03:48.985Z,30.40
2023-01-03T23:06:20.468Z,32.70
2023-01-03T23:08:51.865Z,32.40
2023-01-03T23:11:42.645Z,30.80
2023-01-03T23:14:22.584Z,28.80
2023-01-03T23:16:55.712Z,31.70
2023-01-03T23:19:26.477Z,27.50
2023-01-03T23:21:56.459Z,29.00
2023-01-03T23:24:25.265Z,25.40
2023-01-03T23:26:54.027Z,26.30
2023-01-03T23:29:22.544Z,26.20
2023-01-03T23:31:52.790Z,24.10
2023-01-03T23:34:21.480Z,25.50
2023-01-03T23:36:49.845Z,25.40
2023-01-03T23:39:19.028Z,25.70
2023-01-03T23:41:48.965Z,26.30
2023-01-03T23:44:17.404Z,25.70
2023-01-03T23:46:45.935Z,26.20
2023-01-03T23:49:16.324Z,24.30
2023-01-03T23:51:44.714Z,24.20
2023-01-03T23:54:13.117Z,24.60
2023-01-03T23:56:41.442Z,23.50
2023-01-03T23:59:09.806Z,25.20
